sensor_id;sensor_type;location;lat;lon;timestamp;P1;durP1;ratioP1;P2;durP2;ratioP2
3819;SDS011;1925;51.356;9.530;2023-04-08T00:01:58;11.67;;;8.83;;
3819;SDS011;1925;51.356;9.530;2023-04-08T00:04:24;9.70;;;7.97;;
3819;SDS011;1925;51.356;9.530;2023-04-08T00:06:50;13.50;;;8.53;;
3819;SDS011;1925;51.356;9.530;2023-04-08T00:09:16;10.60;;;7.87;;
3819;SDS011;1925;51.356;9.530;2023-04-08T00:11:42;9.43;;;6.97;;
3819;SDS011;1925;51.356;9.530;2023-04-08T00:14:08;9.30;;;7.50;;
3819;SDS011;1925;51.356;9.530;2023-04-08T00:16:34;8.43;;;7.30;;
3819;SDS011;1925;51.356;9.530;2023-04-08T00:19:00;10.97;;;8.17;;
3819;SDS011;1925;51.356;9.530;2023-04-08T00:21:26;9.80;;;7.23;;
3819;SDS011;1925;51.356;9.530;2023-04-08T00:23:52;9.00;;;6.53;;
3819;SDS011;1925;51.356;9.530;2023-04-08T00:26:18;10.00;;;7.13;;
3819;SDS011;1925;51.356;9.530;2023-04-08T00:28:44;9.32;;;7.50;;
3819;SDS011;1925;51.356;9.530;2023-04-08T00:31:10;8.77;;;6.72;;
3819;SDS011;1925;51.356;9.530;2023-04-08T00:33:36;9.80;;;7.33;;
3819;SDS011;1925;51.356;9.530;2023-04-08T00:36:02;8.87;;;7.63;;
3819;SDS011;1925;51.356;9.530;2023-04-08T00:38:28;8.80;;;7.20;;
3819;SDS011;1925;51.356;9.530;2023-04-08T00:40:55;10.73;;;7.43;;
3819;SDS011;1925;51.356;9.530;2023-04-08T00:43:21;6.93;;;6.22;;
3819;SDS011;1925;51.356;9.530;2023-04-08T00:45:47;9.50;;;7.65;;
3819;SDS011;1925;51.356;9.530;2023-04-08T00:48:13;9.23;;;7.20;;
3819;SDS011;1925;51.356;9.530;2023-04-08T00:50:39;11.13;;;7.72;;
3819;SDS011;1925;51.356;9.530;2023-04-08T00:53:05;9.80;;;8.05;;
3819;SDS011;1925;51.356;9.530;2023-04-08T00:55:31;10.35;;;7.68;;
3819;SDS011;1925;51.356;9.530;2023-04-08T00:57:57;11.90;;;6.73;;
3819;SDS011;1925;51.356;9.530;2023-04-08T01:00:23;8.55;;;7.45;;
3819;SDS011;1925;51.356;9.530;2023-04-08T01:05:35;9.20;;;6.05;;
3819;SDS011;1925;51.356;9.530;2023-04-08T01:08:05;9.77;;;7.38;;
3819;SDS011;1925;51.356;9.530;2023-04-08T01:10:33;15.43;;;7.32;;
3819;SDS011;1925;51.356;9.530;2023-04-08T01:13:00;9.25;;;6.78;;
3819;SDS011;1925;51.356;9.530;2023-04-08T01:15:28;9.43;;;7.45;;
3819;SDS011;1925;51.356;9.530;2023-04-08T01:17:55;8.27;;;6.72;;
3819;SDS011;1925;51.356;9.530;2023-04-08T01:20:25;8.80;;;7.15;;
3819;SDS011;1925;51.356;9.530;2023-04-08T01:22:57;8.52;;;6.93;;
3819;SDS011;1925;51.356;9.530;2023-04-08T01:25:31;8.63;;;7.43;;
3819;SDS011;1925;51.356;9.530;2023-04-08T01:27:57;11.20;;;7.30;;
3819;SDS011;1925;51.356;9.530;2023-04-08T01:30:24;10.48;;;7.18;;
3819;SDS011;1925;51.356;9.530;2023-04-08T01:32:51;7.82;;;6.82;;
3819;SDS011;1925;51.356;9.530;2023-04-08T01:35:18;7.53;;;6.35;;
3819;SDS011;1925;51.356;9.530;2023-04-08T01:37:45;9.75;;;7.50;;
3819;SDS011;1925;51.356;9.530;2023-04-08T01:40:12;7.90;;;6.75;;
3819;SDS011;1925;51.356;9.530;2023-04-08T01:42:38;8.05;;;7.25;;
3819;SDS011;1925;51.356;9.530;2023-04-08T01:45:05;9.13;;;7.40;;
3819;SDS011;1925;51.356;9.530;2023-04-08T01:47:32;8.55;;;7.47;;
3819;SDS011;1925;51.356;9.530;2023-04-08T01:49:58;7.32;;;6.20;;
3819;SDS011;1925;51.356;9.530;2023-04-08T01:52:24;7.90;;;7.10;;
3819;SDS011;1925;51.356;9.530;2023-04-08T01:54:51;9.25;;;6.28;;
3819;SDS011;1925;51.356;9.530;2023-04-08T01:57:27;7.35;;;5.95;;
3819;SDS011;1925;51.356;9.530;2023-04-08T01:59:55;8.13;;;6.53;;
3819;SDS011;1925;51.356;9.530;2023-04-08T02:02:23;9.20;;;6.57;;
3819;SDS011;1925;51.356;9.530;2023-04-08T02:04:51;8.10;;;6.57;;
3819;SDS011;1925;51.356;9.530;2023-04-08T02:07:16;8.13;;;6.40;;
3819;SDS011;1925;51.356;9.530;2023-04-08T02:09:43;11.02;;;7.10;;
3819;SDS011;1925;51.356;9.530;2023-04-08T02:12:09;7.23;;;5.90;;
3819;SDS011;1925;51.356;9.530;2023-04-08T02:14:35;9.13;;;6.68;;
3819;SDS011;1925;51.356;9.530;2023-04-08T02:17:04;10.88;;;6.97;;
3819;SDS011;1925;51.356;9.530;2023-04-08T02:19:42;8.02;;;6.43;;
3819;SDS011;1925;51.356;9.530;2023-04-08T02:22:10;8.02;;;6.38;;
3819;SDS011;1925;51.356;9.530;2023-04-08T02:24:37;9.93;;;6.85;;
3819;SDS011;1925;51.356;9.530;2023-04-08T02:27:03;9.32;;;6.25;;
3819;SDS011;1925;51.356;9.530;2023-04-08T02:29:30;6.75;;;6.05;;
3819;SDS011;1925;51.356;9.530;2023-04-08T02:31:57;9.82;;;7.18;;
3819;SDS011;1925;51.356;9.530;2023-04-08T02:34:23;9.45;;;5.45;;
3819;SDS011;1925;51.356;9.530;2023-04-08T02:36:50;10.00;;;6.95;;
3819;SDS011;1925;51.356;9.530;2023-04-08T02:39:16;5.63;;;5.00;;
3819;SDS011;1925;51.356;9.530;2023-04-08T02:41:42;9.50;;;6.40;;
3819;SDS011;1925;51.356;9.530;2023-04-08T02:44:08;6.73;;;6.03;;
3819;SDS011;1925;51.356;9.530;2023-04-08T02:46:34;9.45;;;7.30;;
3819;SDS011;1925;51.356;9.530;2023-04-08T02:49:00;12.50;;;5.80;;
3819;SDS011;1925;51.356;9.530;2023-04-08T02:51:27;7.82;;;6.10;;
3819;SDS011;1925;51.356;9.530;2023-04-08T02:53:52;6.87;;;5.73;;
3819;SDS011;1925;51.356;9.530;2023-04-08T02:56:19;6.22;;;5.63;;
3819;SDS011;1925;51.356;9.530;2023-04-08T02:58:45;6.78;;;5.53;;
3819;SDS011;1925;51.356;9.530;2023-04-08T03:01:11;5.87;;;5.27;;
3819;SDS011;1925;51.356;9.530;2023-04-08T03:03:37;6.53;;;5.57;;
3819;SDS011;1925;51.356;9.530;2023-04-08T03:06:03;5.90;;;5.30;;
3819;SDS011;1925;51.356;9.530;2023-04-08T03:08:29;8.27;;;5.83;;
3819;SDS011;1925;51.356;9.530;2023-04-08T03:10:55;5.90;;;5.30;;
3819;SDS011;1925;51.356;9.530;2023-04-08T03:13:21;7.30;;;5.70;;
3819;SDS011;1925;51.356;9.530;2023-04-08T03:15:47;7.73;;;6.23;;
3819;SDS011;1925;51.356;9.530;2023-04-08T03:18:13;7.17;;;4.83;;
3819;SDS011;1925;51.356;9.530;2023-04-08T03:20:39;7.60;;;5.95;;
3819;SDS011;1925;51.356;9.530;2023-04-08T03:23:05;8.50;;;5.23;;
3819;SDS011;1925;51.356;9.530;2023-04-08T03:25:31;9.43;;;6.43;;
3819;SDS011;1925;51.356;9.530;2023-04-08T03:27:57;8.13;;;6.33;;
3819;SDS011;1925;51.356;9.530;2023-04-08T03:30:23;8.52;;;6.65;;
3819;SDS011;1925;51.356;9.530;2023-04-08T03:32:49;7.10;;;6.13;;
3819;SDS011;1925;51.356;9.530;2023-04-08T03:35:15;5.93;;;5.33;;
3819;SDS011;1925;51.356;9.530;2023-04-08T03:37:41;7.77;;;6.00;;
3819;SDS011;1925;51.356;9.530;2023-04-08T03:40:07;7.40;;;5.20;;
3819;SDS011;1925;51.356;9.530;2023-04-08T03:42:33;7.32;;;5.72;;
3819;SDS011;1925;51.356;9.530;2023-04-08T03:44:59;6.47;;;5.32;;
3819;SDS011;1925;51.356;9.530;2023-04-08T03:47:25;7.87;;;5.20;;
3819;SDS011;1925;51.356;9.530;2023-04-08T03:49:51;7.28;;;5.80;;
3819;SDS011;1925;51.356;9.530;2023-04-08T03:52:18;6.57;;;5.95;;
3819;SDS011;1925;51.356;9.530;2023-04-08T03:54:44;6.32;;;5.00;;
3819;SDS011;1925;51.356;9.530;2023-04-08T03:57:10;5.30;;;4.80;;
3819;SDS011;1925;51.356;9.530;2023-04-08T03:59:36;6.05;;;5.15;;
3819;SDS011;1925;51.356;9.530;2023-04-08T04:02:04;6.40;;;4.68;;
3819;SDS011;1925;51.356;9.530;2023-04-08T04:04:31;5.43;;;4.80;;
3819;SDS011;1925;51.356;9.530;2023-04-08T04:06:57;6.63;;;6.00;;
3819;SDS011;1925;51.356;9.530;2023-04-08T04:09:23;5.70;;;4.77;;
3819;SDS011;1925;51.356;9.530;2023-04-08T04:11:49;7.45;;;6.10;;
3819;SDS011;1925;51.356;9.530;2023-04-08T04:14:15;5.97;;;4.60;;
3819;SDS011;1925;51.356;9.530;2023-04-08T04:16:41;5.87;;;5.13;;
3819;SDS011;1925;51.356;9.530;2023-04-08T04:19:07;6.73;;;5.30;;
3819;SDS011;1925;51.356;9.530;2023-04-08T04:21:33;7.67;;;6.47;;
3819;SDS011;1925;51.356;9.530;2023-04-08T04:23:59;6.27;;;4.73;;
3819;SDS011;1925;51.356;9.530;2023-04-08T04:26:25;8.70;;;5.43;;
3819;SDS011;1925;51.356;9.530;2023-04-08T04:28:51;8.50;;;6.37;;
3819;SDS011;1925;51.356;9.530;2023-04-08T04:31:20;7.40;;;6.33;;
3819;SDS011;1925;51.356;9.530;2023-04-08T04:33:46;6.75;;;5.93;;
3819;SDS011;1925;51.356;9.530;2023-04-08T04:36:13;6.93;;;6.30;;
3819;SDS011;1925;51.356;9.530;2023-04-08T04:38:39;7.05;;;6.32;;
3819;SDS011;1925;51.356;9.530;2023-04-08T04:41:05;7.90;;;6.80;;
3819;SDS011;1925;51.356;9.530;2023-04-08T04:43:31;7.70;;;6.60;;
3819;SDS011;1925;51.356;9.530;2023-04-08T04:45:57;10.40;;;7.43;;
3819;SDS011;1925;51.356;9.530;2023-04-08T04:48:23;12.68;;;7.07;;
3819;SDS011;1925;51.356;9.530;2023-04-08T04:50:55;7.90;;;6.40;;
3819;SDS011;1925;51.356;9.530;2023-04-08T04:53:21;8.23;;;6.70;;
3819;SDS011;1925;51.356;9.530;2023-04-08T04:55:47;8.83;;;6.10;;
3819;SDS011;1925;51.356;9.530;2023-04-08T04:58:13;7.20;;;6.00;;
3819;SDS011;1925;51.356;9.530;2023-04-08T05:00:40;6.78;;;6.03;;
3819;SDS011;1925;51.356;9.530;2023-04-08T05:03:06;8.20;;;6.20;;
3819;SDS011;1925;51.356;9.530;2023-04-08T05:05:31;8.97;;;6.00;;
3819;SDS011;1925;51.356;9.530;2023-04-08T05:07:57;6.53;;;5.30;;
3819;SDS011;1925;51.356;9.530;2023-04-08T05:10:23;8.83;;;6.73;;
3819;SDS011;1925;51.356;9.530;2023-04-08T05:12:49;6.57;;;5.47;;
3819;SDS011;1925;51.356;9.530;2023-04-08T05:15:15;7.00;;;5.40;;
3819;SDS011;1925;51.356;9.530;2023-04-08T05:17:41;6.20;;;5.00;;
3819;SDS011;1925;51.356;9.530;2023-04-08T05:20:07;5.93;;;5.20;;
3819;SDS011;1925;51.356;9.530;2023-04-08T05:22:33;7.22;;;5.53;;
3819;SDS011;1925;51.356;9.530;2023-04-08T05:24:59;5.13;;;4.00;;
3819;SDS011;1925;51.356;9.530;2023-04-08T05:27:25;6.50;;;4.90;;
3819;SDS011;1925;51.356;9.530;2023-04-08T05:29:51;8.60;;;5.53;;
3819;SDS011;1925;51.356;9.530;2023-04-08T05:32:17;5.75;;;4.85;;
3819;SDS011;1925;51.356;9.530;2023-04-08T05:34:43;5.23;;;4.57;;
3819;SDS011;1925;51.356;9.530;2023-04-08T05:37:09;5.67;;;4.93;;
3819;SDS011;1925;51.356;9.530;2023-04-08T05:39:35;6.82;;;5.03;;
3819;SDS011;1925;51.356;9.530;2023-04-08T05:42:01;6.10;;;5.17;;
3819;SDS011;1925;51.356;9.530;2023-04-08T05:44:27;6.87;;;5.40;;
3819;SDS011;1925;51.356;9.530;2023-04-08T05:46:53;6.67;;;5.70;;
3819;SDS011;1925;51.356;9.530;2023-04-08T05:49:21;5.97;;;5.38;;
3819;SDS011;1925;51.356;9.530;2023-04-08T05:51:47;7.13;;;6.40;;
3819;SDS011;1925;51.356;9.530;2023-04-08T05:54:13;8.33;;;7.10;;
3819;SDS011;1925;51.356;9.530;2023-04-08T05:56:39;8.10;;;5.60;;
3819;SDS011;1925;51.356;9.530;2023-04-08T05:59:05;10.90;;;7.57;;
3819;SDS011;1925;51.356;9.530;2023-04-08T06:01:31;9.00;;;6.57;;
3819;SDS011;1925;51.356;9.530;2023-04-08T06:03:57;8.07;;;6.57;;
3819;SDS011;1925;51.356;9.530;2023-04-08T06:06:23;8.20;;;5.90;;
3819;SDS011;1925;51.356;9.530;2023-04-08T06:08:52;7.30;;;6.20;;
3819;SDS011;1925;51.356;9.530;2023-04-08T06:11:18;8.75;;;7.22;;
3819;SDS011;1925;51.356;9.530;2023-04-08T06:13:44;8.57;;;7.63;;
3819;SDS011;1925;51.356;9.530;2023-04-08T06:16:10;8.73;;;6.80;;
3819;SDS011;1925;51.356;9.530;2023-04-08T06:18:37;9.70;;;7.70;;
3819;SDS011;1925;51.356;9.530;2023-04-08T06:21:02;9.77;;;8.27;;
3819;SDS011;1925;51.356;9.530;2023-04-08T06:23:28;13.30;;;10.10;;
3819;SDS011;1925;51.356;9.530;2023-04-08T06:25:55;13.07;;;10.13;;
3819;SDS011;1925;51.356;9.530;2023-04-08T06:28:21;14.68;;;11.23;;
3819;SDS011;1925;51.356;9.530;2023-04-08T06:30:47;22.33;;;13.43;;
3819;SDS011;1925;51.356;9.530;2023-04-08T06:33:13;18.10;;;12.63;;
3819;SDS011;1925;51.356;9.530;2023-04-08T06:35:39;17.75;;;13.07;;
3819;SDS011;1925;51.356;9.530;2023-04-08T06:38:05;20.05;;;14.60;;
3819;SDS011;1925;51.356;9.530;2023-04-08T06:40:31;20.13;;;14.23;;
3819;SDS011;1925;51.356;9.530;2023-04-08T06:42:57;18.33;;;13.83;;
3819;SDS011;1925;51.356;9.530;2023-04-08T06:45:23;25.57;;;16.10;;
3819;SDS011;1925;51.356;9.530;2023-04-08T06:47:50;18.15;;;14.45;;
3819;SDS011;1925;51.356;9.530;2023-04-08T06:50:16;22.23;;;15.80;;
3819;SDS011;1925;51.356;9.530;2023-04-08T06:52:42;20.50;;;15.13;;
3819;SDS011;1925;51.356;9.530;2023-04-08T06:55:08;23.43;;;16.70;;
3819;SDS011;1925;51.356;9.530;2023-04-08T06:57:34;22.70;;;16.73;;
3819;SDS011;1925;51.356;9.530;2023-04-08T07:00:00;22.95;;;17.02;;
3819;SDS011;1925;51.356;9.530;2023-04-08T07:02:26;20.25;;;15.18;;
3819;SDS011;1925;51.356;9.530;2023-04-08T07:04:52;20.40;;;14.77;;
3819;SDS011;1925;51.356;9.530;2023-04-08T07:07:18;19.90;;;15.18;;
3819;SDS011;1925;51.356;9.530;2023-04-08T07:09:44;24.55;;;16.17;;
3819;SDS011;1925;51.356;9.530;2023-04-08T07:12:11;24.10;;;15.63;;
3819;SDS011;1925;51.356;9.530;2023-04-08T07:14:37;21.00;;;15.00;;
3819;SDS011;1925;51.356;9.530;2023-04-08T07:17:02;21.87;;;15.27;;
3819;SDS011;1925;51.356;9.530;2023-04-08T07:19:28;18.40;;;13.70;;
3819;SDS011;1925;51.356;9.530;2023-04-08T07:21:54;15.95;;;12.82;;
3819;SDS011;1925;51.356;9.530;2023-04-08T07:24:21;15.80;;;12.70;;
3819;SDS011;1925;51.356;9.530;2023-04-08T07:26:47;17.13;;;12.40;;
3819;SDS011;1925;51.356;9.530;2023-04-08T07:29:14;13.70;;;11.10;;
3819;SDS011;1925;51.356;9.530;2023-04-08T07:31:41;12.95;;;9.95;;
3819;SDS011;1925;51.356;9.530;2023-04-08T07:34:08;16.50;;;13.30;;
3819;SDS011;1925;51.356;9.530;2023-04-08T07:36:34;14.13;;;12.23;;
3819;SDS011;1925;51.356;9.530;2023-04-08T07:39:00;17.10;;;13.20;;
3819;SDS011;1925;51.356;9.530;2023-04-08T07:41:27;15.00;;;11.15;;
3819;SDS011;1925;51.356;9.530;2023-04-08T07:43:53;16.63;;;11.87;;
3819;SDS011;1925;51.356;9.530;2023-04-08T07:46:19;15.88;;;11.40;;
3819;SDS011;1925;51.356;9.530;2023-04-08T07:48:45;16.83;;;11.10;;
3819;SDS011;1925;51.356;9.530;2023-04-08T07:51:11;16.10;;;11.37;;
3819;SDS011;1925;51.356;9.530;2023-04-08T07:53:38;15.85;;;11.05;;
3819;SDS011;1925;51.356;9.530;2023-04-08T07:56:11;12.93;;;9.30;;
3819;SDS011;1925;51.356;9.530;2023-04-08T07:58:37;13.75;;;11.05;;
3819;SDS011;1925;51.356;9.530;2023-04-08T08:01:04;13.80;;;10.20;;
3819;SDS011;1925;51.356;9.530;2023-04-08T08:03:38;9.95;;;7.90;;
3819;SDS011;1925;51.356;9.530;2023-04-08T08:06:05;12.00;;;8.77;;
3819;SDS011;1925;51.356;9.530;2023-04-08T08:08:31;13.73;;;8.65;;
3819;SDS011;1925;51.356;9.530;2023-04-08T08:10:59;9.38;;;7.82;;
3819;SDS011;1925;51.356;9.530;2023-04-08T08:13:25;9.40;;;7.80;;
3819;SDS011;1925;51.356;9.530;2023-04-08T08:15:51;8.30;;;6.70;;
3819;SDS011;1925;51.356;9.530;2023-04-08T08:18:17;9.93;;;7.65;;
3819;SDS011;1925;51.356;9.530;2023-04-08T08:20:43;9.52;;;7.30;;
3819;SDS011;1925;51.356;9.530;2023-04-08T08:23:09;8.50;;;7.37;;
3819;SDS011;1925;51.356;9.530;2023-04-08T08:25:35;9.57;;;7.60;;
3819;SDS011;1925;51.356;9.530;2023-04-08T08:28:01;13.07;;;8.20;;
3819;SDS011;1925;51.356;9.530;2023-04-08T08:30:27;8.70;;;7.80;;
3819;SDS011;1925;51.356;9.530;2023-04-08T08:32:53;9.18;;;7.30;;
3819;SDS011;1925;51.356;9.530;2023-04-08T08:35:20;9.32;;;7.10;;
3819;SDS011;1925;51.356;9.530;2023-04-08T08:37:46;9.47;;;6.80;;
3819;SDS011;1925;51.356;9.530;2023-04-08T08:40:12;12.52;;;8.02;;
3819;SDS011;1925;51.356;9.530;2023-04-08T08:42:39;8.57;;;7.10;;
3819;SDS011;1925;51.356;9.530;2023-04-08T08:45:05;9.80;;;7.97;;
3819;SDS011;1925;51.356;9.530;2023-04-08T08:47:32;9.77;;;7.75;;
3819;SDS011;1925;51.356;9.530;2023-04-08T08:49:58;9.97;;;8.30;;
3819;SDS011;1925;51.356;9.530;2023-04-08T08:52:24;9.23;;;8.25;;
3819;SDS011;1925;51.356;9.530;2023-04-08T08:54:56;9.93;;;8.20;;
3819;SDS011;1925;51.356;9.530;2023-04-08T08:57:22;9.88;;;8.05;;
3819;SDS011;1925;51.356;9.530;2023-04-08T08:59:48;10.17;;;7.83;;
3819;SDS011;1925;51.356;9.530;2023-04-08T09:02:27;10.13;;;8.18;;
3819;SDS011;1925;51.356;9.530;2023-04-08T09:07:23;13.27;;;8.75;;
3819;SDS011;1925;51.356;9.530;2023-04-08T09:09:51;10.52;;;8.18;;
3819;SDS011;1925;51.356;9.530;2023-04-08T09:12:17;11.40;;;8.60;;
3819;SDS011;1925;51.356;9.530;2023-04-08T09:14:43;11.77;;;9.27;;
3819;SDS011;1925;51.356;9.530;2023-04-08T09:17:09;12.13;;;9.43;;
3819;SDS011;1925;51.356;9.530;2023-04-08T09:19:35;14.35;;;8.75;;
3819;SDS011;1925;51.356;9.530;2023-04-08T09:22:09;11.95;;;9.52;;
3819;SDS011;1925;51.356;9.530;2023-04-08T09:24:35;14.52;;;9.57;;
3819;SDS011;1925;51.356;9.530;2023-04-08T09:27:02;11.98;;;9.70;;
3819;SDS011;1925;51.356;9.530;2023-04-08T09:29:28;11.75;;;9.05;;
3819;SDS011;1925;51.356;9.530;2023-04-08T09:31:55;15.98;;;9.93;;
3819;SDS011;1925;51.356;9.530;2023-04-08T09:34:21;13.15;;;10.35;;
3819;SDS011;1925;51.356;9.530;2023-04-08T09:36:48;12.75;;;9.75;;
3819;SDS011;1925;51.356;9.530;2023-04-08T09:39:14;12.40;;;8.85;;
3819;SDS011;1925;51.356;9.530;2023-04-08T09:41:41;12.37;;;9.53;;
3819;SDS011;1925;51.356;9.530;2023-04-08T09:44:07;12.63;;;9.45;;
3819;SDS011;1925;51.356;9.530;2023-04-08T09:49:37;13.48;;;10.13;;
3819;SDS011;1925;51.356;9.530;2023-04-08T09:52:09;14.30;;;10.43;;
3819;SDS011;1925;51.356;9.530;2023-04-08T09:54:55;12.38;;;9.25;;
3819;SDS011;1925;51.356;9.530;2023-04-08T10:00:08;14.60;;;10.75;;
3819;SDS011;1925;51.356;9.530;2023-04-08T10:05:09;15.98;;;11.10;;
3819;SDS011;1925;51.356;9.530;2023-04-08T10:07:36;14.90;;;10.38;;
3819;SDS011;1925;51.356;9.530;2023-04-08T10:10:03;14.30;;;10.50;;
3819;SDS011;1925;51.356;9.530;2023-04-08T10:12:29;13.13;;;10.63;;
3819;SDS011;1925;51.356;9.530;2023-04-08T10:17:40;14.43;;;10.10;;
3819;SDS011;1925;51.356;9.530;2023-04-08T10:20:13;14.93;;;10.60;;
3819;SDS011;1925;51.356;9.530;2023-04-08T10:22:52;14.60;;;10.80;;
3819;SDS011;1925;51.356;9.530;2023-04-08T10:27:44;13.00;;;10.55;;
3819;SDS011;1925;51.356;9.530;2023-04-08T10:32:57;18.77;;;12.55;;
3819;SDS011;1925;51.356;9.530;2023-04-08T10:35:30;15.32;;;11.40;;
3819;SDS011;1925;51.356;9.530;2023-04-08T10:37:57;18.10;;;11.82;;
3819;SDS011;1925;51.356;9.530;2023-04-08T10:40:23;16.88;;;12.35;;
3819;SDS011;1925;51.356;9.530;2023-04-08T10:42:56;18.50;;;12.25;;
3819;SDS011;1925;51.356;9.530;2023-04-08T10:45:23;15.52;;;11.50;;
3819;SDS011;1925;51.356;9.530;2023-04-08T10:47:49;19.45;;;12.65;;
3819;SDS011;1925;51.356;9.530;2023-04-08T10:50:16;17.67;;;13.20;;
3819;SDS011;1925;51.356;9.530;2023-04-08T10:52:48;18.45;;;12.15;;
3819;SDS011;1925;51.356;9.530;2023-04-08T10:55:16;17.42;;;12.18;;
3819;SDS011;1925;51.356;9.530;2023-04-08T10:57:46;18.35;;;12.52;;
3819;SDS011;1925;51.356;9.530;2023-04-08T11:00:16;17.93;;;12.53;;
3819;SDS011;1925;51.356;9.530;2023-04-08T11:02:43;17.27;;;12.50;;
3819;SDS011;1925;51.356;9.530;2023-04-08T11:05:09;17.40;;;11.77;;
3819;SDS011;1925;51.356;9.530;2023-04-08T11:07:39;17.70;;;12.40;;
3819;SDS011;1925;51.356;9.530;2023-04-08T11:10:06;17.50;;;12.40;;
3819;SDS011;1925;51.356;9.530;2023-04-08T11:12:32;19.33;;;12.93;;
3819;SDS011;1925;51.356;9.530;2023-04-08T11:14:58;21.77;;;13.73;;
3819;SDS011;1925;51.356;9.530;2023-04-08T11:17:24;19.17;;;13.05;;
3819;SDS011;1925;51.356;9.530;2023-04-08T11:19:50;21.60;;;13.10;;
3819;SDS011;1925;51.356;9.530;2023-04-08T11:22:16;18.85;;;13.57;;
3819;SDS011;1925;51.356;9.530;2023-04-08T11:24:42;22.17;;;14.23;;
3819;SDS011;1925;51.356;9.530;2023-04-08T11:27:09;19.70;;;13.27;;
3819;SDS011;1925;51.356;9.530;2023-04-08T11:29:35;19.15;;;13.15;;
3819;SDS011;1925;51.356;9.530;2023-04-08T11:32:02;20.85;;;14.18;;
3819;SDS011;1925;51.356;9.530;2023-04-08T11:34:28;21.33;;;14.35;;
3819;SDS011;1925;51.356;9.530;2023-04-08T11:36:55;19.67;;;13.13;;
3819;SDS011;1925;51.356;9.530;2023-04-08T11:39:22;20.25;;;14.35;;
3819;SDS011;1925;51.356;9.530;2023-04-08T11:41:48;23.23;;;14.00;;
3819;SDS011;1925;51.356;9.530;2023-04-08T11:44:14;26.77;;;14.55;;
3819;SDS011;1925;51.356;9.530;2023-04-08T11:46:40;22.33;;;14.00;;
3819;SDS011;1925;51.356;9.530;2023-04-08T11:49:19;22.27;;;14.90;;
3819;SDS011;1925;51.356;9.530;2023-04-08T11:51:52;20.35;;;13.20;;
3819;SDS011;1925;51.356;9.530;2023-04-08T11:54:28;20.05;;;13.55;;
3819;SDS011;1925;51.356;9.530;2023-04-08T11:56:54;22.38;;;13.30;;
3819;SDS011;1925;51.356;9.530;2023-04-08T11:59:22;18.55;;;13.82;;
3819;SDS011;1925;51.356;9.530;2023-04-08T12:01:48;19.30;;;14.00;;
3819;SDS011;1925;51.356;9.530;2023-04-08T12:04:14;23.63;;;14.15;;
3819;SDS011;1925;51.356;9.530;2023-04-08T12:06:40;17.58;;;12.65;;
3819;SDS011;1925;51.356;9.530;2023-04-08T12:09:07;20.90;;;15.15;;
3819;SDS011;1925;51.356;9.530;2023-04-08T12:11:33;18.92;;;12.70;;
3819;SDS011;1925;51.356;9.530;2023-04-08T12:13:59;22.90;;;13.25;;
3819;SDS011;1925;51.356;9.530;2023-04-08T12:16:25;19.60;;;13.87;;
3819;SDS011;1925;51.356;9.530;2023-04-08T12:18:51;18.97;;;13.40;;
3819;SDS011;1925;51.356;9.530;2023-04-08T12:21:17;20.17;;;13.90;;
3819;SDS011;1925;51.356;9.530;2023-04-08T12:23:43;20.13;;;14.20;;
3819;SDS011;1925;51.356;9.530;2023-04-08T12:26:09;23.40;;;14.02;;
3819;SDS011;1925;51.356;9.530;2023-04-08T12:28:35;21.42;;;13.80;;
3819;SDS011;1925;51.356;9.530;2023-04-08T12:31:02;26.45;;;16.15;;
3819;SDS011;1925;51.356;9.530;2023-04-08T12:33:28;22.00;;;13.75;;
3819;SDS011;1925;51.356;9.530;2023-04-08T12:35:54;23.05;;;14.45;;
3819;SDS011;1925;51.356;9.530;2023-04-08T12:38:22;24.58;;;14.75;;
3819;SDS011;1925;51.356;9.530;2023-04-08T12:40:48;21.87;;;15.67;;
3819;SDS011;1925;51.356;9.530;2023-04-08T12:43:17;22.40;;;13.57;;
3819;SDS011;1925;51.356;9.530;2023-04-08T12:45:43;21.87;;;15.10;;
3819;SDS011;1925;51.356;9.530;2023-04-08T12:48:09;22.53;;;15.47;;
3819;SDS011;1925;51.356;9.530;2023-04-08T12:50:35;20.48;;;13.25;;
3819;SDS011;1925;51.356;9.530;2023-04-08T12:53:01;18.23;;;12.60;;
3819;SDS011;1925;51.356;9.530;2023-04-08T12:55:26;28.03;;;13.33;;
3819;SDS011;1925;51.356;9.530;2023-04-08T12:57:52;17.85;;;12.85;;
3819;SDS011;1925;51.356;9.530;2023-04-08T13:00:18;16.70;;;11.80;;
3819;SDS011;1925;51.356;9.530;2023-04-08T13:02:45;15.68;;;11.38;;
3819;SDS011;1925;51.356;9.530;2023-04-08T13:05:11;14.43;;;9.70;;
3819;SDS011;1925;51.356;9.530;2023-04-08T13:07:37;15.73;;;9.87;;
3819;SDS011;1925;51.356;9.530;2023-04-08T13:10:03;13.33;;;8.93;;
3819;SDS011;1925;51.356;9.530;2023-04-08T13:12:30;17.15;;;10.45;;
3819;SDS011;1925;51.356;9.530;2023-04-08T13:14:57;20.63;;;13.30;;
3819;SDS011;1925;51.356;9.530;2023-04-08T13:17:24;14.13;;;9.23;;
3819;SDS011;1925;51.356;9.530;2023-04-08T13:19:50;17.10;;;11.07;;
3819;SDS011;1925;51.356;9.530;2023-04-08T13:22:16;14.35;;;9.60;;
3819;SDS011;1925;51.356;9.530;2023-04-08T13:24:42;15.57;;;10.87;;
3819;SDS011;1925;51.356;9.530;2023-04-08T13:27:08;16.70;;;10.60;;
3819;SDS011;1925;51.356;9.530;2023-04-08T13:29:34;12.07;;;9.25;;
3819;SDS011;1925;51.356;9.530;2023-04-08T13:32:00;15.57;;;10.10;;
3819;SDS011;1925;51.356;9.530;2023-04-08T13:34:26;13.10;;;9.30;;
3819;SDS011;1925;51.356;9.530;2023-04-08T13:36:52;14.32;;;9.75;;
3819;SDS011;1925;51.356;9.530;2023-04-08T13:39:18;13.38;;;8.90;;
3819;SDS011;1925;51.356;9.530;2023-04-08T13:41:44;11.43;;;8.23;;
3819;SDS011;1925;51.356;9.530;2023-04-08T13:44:10;12.00;;;9.80;;
3819;SDS011;1925;51.356;9.530;2023-04-08T13:46:36;12.53;;;8.90;;
3819;SDS011;1925;51.356;9.530;2023-04-08T13:49:02;12.48;;;8.48;;
3819;SDS011;1925;51.356;9.530;2023-04-08T13:51:28;9.77;;;7.90;;
3819;SDS011;1925;51.356;9.530;2023-04-08T13:53:55;12.18;;;8.90;;
3819;SDS011;1925;51.356;9.530;2023-04-08T13:56:21;8.70;;;6.72;;
3819;SDS011;1925;51.356;9.530;2023-04-08T13:58:47;10.80;;;8.27;;
3819;SDS011;1925;51.356;9.530;2023-04-08T14:01:13;10.70;;;8.07;;
3819;SDS011;1925;51.356;9.530;2023-04-08T14:03:39;10.85;;;8.02;;
3819;SDS011;1925;51.356;9.530;2023-04-08T14:06:05;9.13;;;6.80;;
3819;SDS011;1925;51.356;9.530;2023-04-08T14:08:31;15.32;;;10.68;;
3819;SDS011;1925;51.356;9.530;2023-04-08T14:10:59;11.13;;;6.82;;
3819;SDS011;1925;51.356;9.530;2023-04-08T14:13:25;8.33;;;6.57;;
3819;SDS011;1925;51.356;9.530;2023-04-08T14:15:51;9.00;;;7.45;;
3819;SDS011;1925;51.356;9.530;2023-04-08T14:18:22;9.23;;;7.90;;
3819;SDS011;1925;51.356;9.530;2023-04-08T14:20:48;10.50;;;6.77;;
3819;SDS011;1925;51.356;9.530;2023-04-08T14:23:14;9.70;;;7.20;;
3819;SDS011;1925;51.356;9.530;2023-04-08T14:25:41;9.03;;;7.90;;
3819;SDS011;1925;51.356;9.530;2023-04-08T14:28:08;12.07;;;8.77;;
3819;SDS011;1925;51.356;9.530;2023-04-08T14:30:37;10.87;;;8.27;;
3819;SDS011;1925;51.356;9.530;2023-04-08T14:33:04;11.53;;;9.67;;
3819;SDS011;1925;51.356;9.530;2023-04-08T14:35:31;8.50;;;7.57;;
3819;SDS011;1925;51.356;9.530;2023-04-08T14:37:57;8.60;;;7.20;;
3819;SDS011;1925;51.356;9.530;2023-04-08T14:40:23;9.57;;;6.93;;
3819;SDS011;1925;51.356;9.530;2023-04-08T14:42:50;10.53;;;8.03;;
3819;SDS011;1925;51.356;9.530;2023-04-08T14:45:17;8.60;;;6.63;;
3819;SDS011;1925;51.356;9.530;2023-04-08T14:47:43;9.80;;;7.37;;
3819;SDS011;1925;51.356;9.530;2023-04-08T14:50:12;8.97;;;7.50;;
3819;SDS011;1925;51.356;9.530;2023-04-08T14:52:38;9.27;;;6.93;;
3819;SDS011;1925;51.356;9.530;2023-04-08T14:55:05;9.13;;;7.70;;
3819;SDS011;1925;51.356;9.530;2023-04-08T14:57:31;11.37;;;7.77;;
3819;SDS011;1925;51.356;9.530;2023-04-08T14:59:57;8.93;;;7.50;;
3819;SDS011;1925;51.356;9.530;2023-04-08T15:02:23;8.13;;;7.03;;
3819;SDS011;1925;51.356;9.530;2023-04-08T15:04:49;8.50;;;7.17;;
3819;SDS011;1925;51.356;9.530;2023-04-08T15:07:15;9.00;;;7.30;;
3819;SDS011;1925;51.356;9.530;2023-04-08T15:09:41;9.13;;;7.03;;
3819;SDS011;1925;51.356;9.530;2023-04-08T15:12:07;9.00;;;6.90;;
3819;SDS011;1925;51.356;9.530;2023-04-08T15:14:33;8.73;;;7.20;;
3819;SDS011;1925;51.356;9.530;2023-04-08T15:16:59;11.20;;;8.40;;
3819;SDS011;1925;51.356;9.530;2023-04-08T15:19:25;10.50;;;8.40;;
3819;SDS011;1925;51.356;9.530;2023-04-08T15:21:51;11.57;;;8.93;;